sensor_id;sensor_type;location;lat;lon;timestamp;P1;durP1;ratioP1;P2;durP2;ratioP2
51943;SDS011;37969;53.132;6.370;2022-11-02T00:02:14;11.73;;;2.40;;
51943;SDS011;37969;53.132;6.370;2022-11-02T00:04:40;14.75;;;2.80;;
51943;SDS011;37969;53.132;6.370;2022-11-02T00:07:06;9.95;;;2.53;;
51943;SDS011;37969;53.132;6.370;2022-11-02T00:09:33;12.75;;;2.40;;
51943;SDS011;37969;53.132;6.370;2022-11-02T00:11:59;10.70;;;2.53;;
51943;SDS011;37969;53.132;6.370;2022-11-02T00:14:25;14.23;;;2.67;;
51943;SDS011;37969;53.132;6.370;2022-11-02T00:16:51;6.57;;;1.92;;
51943;SDS011;37969;53.132;6.370;2022-11-02T00:19:17;13.77;;;2.40;;
51943;SDS011;37969;53.132;6.370;2022-11-02T00:21:44;9.85;;;1.90;;
51943;SDS011;37969;53.132;6.370;2022-11-02T00:24:10;10.38;;;2.28;;
51943;SDS011;37969;53.132;6.370;2022-11-02T00:26:37;14.27;;;2.53;;
51943;SDS011;37969;53.132;6.370;2022-11-02T00:29:03;8.10;;;1.80;;
51943;SDS011;37969;53.132;6.370;2022-11-02T00:31:30;8.45;;;1.90;;
51943;SDS011;37969;53.132;6.370;2022-11-02T00:33:56;11.18;;;2.45;;
51943;SDS011;37969;53.132;6.370;2022-11-02T00:36:22;9.18;;;2.08;;
51943;SDS011;37969;53.132;6.370;2022-11-02T00:38:49;7.70;;;1.90;;
51943;SDS011;37969;53.132;6.370;2022-11-02T00:41:17;9.90;;;2.03;;
51943;SDS011;37969;53.132;6.370;2022-11-02T00:43:43;8.10;;;1.83;;
51943;SDS011;37969;53.132;6.370;2022-11-02T00:46:10;8.43;;;1.85;;
51943;SDS011;37969;53.132;6.370;2022-11-02T00:48:36;6.05;;;1.58;;
51943;SDS011;37969;53.132;6.370;2022-11-02T00:51:02;6.70;;;1.67;;
51943;SDS011;37969;53.132;6.370;2022-11-02T00:53:28;5.90;;;1.30;;
51943;SDS011;37969;53.132;6.370;2022-11-02T00:55:54;8.48;;;1.60;;
51943;SDS011;37969;53.132;6.370;2022-11-02T00:58:20;9.45;;;1.90;;
51943;SDS011;37969;53.132;6.370;2022-11-02T01:00:46;6.63;;;1.48;;
51943;SDS011;37969;53.132;6.370;2022-11-02T01:03:13;9.00;;;1.42;;
51943;SDS011;37969;53.132;6.370;2022-11-02T01:05:39;9.20;;;2.17;;
51943;SDS011;37969;53.132;6.370;2022-11-02T01:08:05;6.00;;;1.40;;
51943;SDS011;37969;53.132;6.370;2022-11-02T01:10:31;8.35;;;1.80;;
51943;SDS011;37969;53.132;6.370;2022-11-02T01:12:57;6.97;;;1.90;;
51943;SDS011;37969;53.132;6.370;2022-11-02T01:15:23;5.28;;;1.30;;
51943;SDS011;37969;53.132;6.370;2022-11-02T01:17:49;6.72;;;1.52;;
51943;SDS011;37969;53.132;6.370;2022-11-02T01:20:16;3.22;;;1.23;;
51943;SDS011;37969;53.132;6.370;2022-11-02T01:22:42;4.38;;;1.00;;
51943;SDS011;37969;53.132;6.370;2022-11-02T01:25:08;4.00;;;1.25;;
51943;SDS011;37969;53.132;6.370;2022-11-02T01:27:34;4.40;;;1.15;;
51943;SDS011;37969;53.132;6.370;2022-11-02T01:30:01;4.80;;;1.38;;
51943;SDS011;37969;53.132;6.370;2022-11-02T01:32:28;3.25;;;1.13;;
51943;SDS011;37969;53.132;6.370;2022-11-02T01:34:54;4.03;;;1.20;;
51943;SDS011;37969;53.132;6.370;2022-11-02T01:37:20;5.05;;;1.10;;
51943;SDS011;37969;53.132;6.370;2022-11-02T01:39:46;3.80;;;1.10;;
51943;SDS011;37969;53.132;6.370;2022-11-02T01:42:17;3.83;;;1.00;;
51943;SDS011;37969;53.132;6.370;2022-11-02T01:44:43;4.68;;;1.15;;
51943;SDS011;37969;53.132;6.370;2022-11-02T01:47:15;2.67;;;1.10;;
51943;SDS011;37969;53.132;6.370;2022-11-02T01:49:44;4.50;;;1.30;;
51943;SDS011;37969;53.132;6.370;2022-11-02T01:52:13;2.25;;;1.00;;
51943;SDS011;37969;53.132;6.370;2022-11-02T01:54:41;13.87;;;7.60;;
51943;SDS011;37969;53.132;6.370;2022-11-02T01:57:09;4.57;;;1.60;;
51943;SDS011;37969;53.132;6.370;2022-11-02T01:59:43;7.55;;;1.42;;
51943;SDS011;37969;53.132;6.370;2022-11-02T02:02:14;4.72;;;1.52;;
51943;SDS011;37969;53.132;6.370;2022-11-02T02:07:06;5.97;;;2.08;;
51943;SDS011;37969;53.132;6.370;2022-11-02T02:09:33;5.55;;;1.90;;
51943;SDS011;37969;53.132;6.370;2022-11-02T02:11:59;2.75;;;1.90;;
51943;SDS011;37969;53.132;6.370;2022-11-02T02:14:25;7.28;;;2.08;;
51943;SDS011;37969;53.132;6.370;2022-11-02T02:19:40;7.05;;;2.38;;
51943;SDS011;37969;53.132;6.370;2022-11-02T02:24:41;6.45;;;2.33;;
51943;SDS011;37969;53.132;6.370;2022-11-02T02:27:17;8.07;;;2.60;;
51943;SDS011;37969;53.132;6.370;2022-11-02T02:29:48;8.23;;;2.47;;
51943;SDS011;37969;53.132;6.370;2022-11-02T02:32:19;9.93;;;2.80;;
51943;SDS011;37969;53.132;6.370;2022-11-02T02:37:16;9.85;;;2.60;;
51943;SDS011;37969;53.132;6.370;2022-11-02T02:42:12;9.85;;;3.17;;
51943;SDS011;37969;53.132;6.370;2022-11-02T02:44:41;10.90;;;3.10;;
51943;SDS011;37969;53.132;6.370;2022-11-02T02:47:10;8.25;;;2.67;;
51943;SDS011;37969;53.132;6.370;2022-11-02T02:49:39;9.02;;;2.60;;
51943;SDS011;37969;53.132;6.370;2022-11-02T02:52:06;10.80;;;3.25;;
51943;SDS011;37969;53.132;6.370;2022-11-02T02:54:34;10.82;;;2.33;;
51943;SDS011;37969;53.132;6.370;2022-11-02T02:57:02;6.38;;;2.00;;
51943;SDS011;37969;53.132;6.370;2022-11-02T02:59:33;8.70;;;2.00;;
51943;SDS011;37969;53.132;6.370;2022-11-02T03:04:27;4.55;;;1.40;;
51943;SDS011;37969;53.132;6.370;2022-11-02T03:06:55;4.07;;;1.00;;
51943;SDS011;37969;53.132;6.370;2022-11-02T03:12:02;4.97;;;1.35;;
51943;SDS011;37969;53.132;6.370;2022-11-02T03:14:32;3.35;;;0.95;;
51943;SDS011;37969;53.132;6.370;2022-11-02T03:17:04;9.52;;;1.25;;
51943;SDS011;37969;53.132;6.370;2022-11-02T03:21:59;3.00;;;0.95;;
51943;SDS011;37969;53.132;6.370;2022-11-02T03:24:29;4.93;;;1.27;;
51943;SDS011;37969;53.132;6.370;2022-11-02T03:27:05;6.57;;;0.90;;
51943;SDS011;37969;53.132;6.370;2022-11-02T03:29:37;5.80;;;1.17;;
51943;SDS011;37969;53.132;6.370;2022-11-02T03:32:09;4.65;;;1.25;;
51943;SDS011;37969;53.132;6.370;2022-11-02T03:34:37;5.80;;;1.20;;
51943;SDS011;37969;53.132;6.370;2022-11-02T03:37:09;6.95;;;1.23;;
51943;SDS011;37969;53.132;6.370;2022-11-02T03:39:39;5.90;;;1.17;;
51943;SDS011;37969;53.132;6.370;2022-11-02T03:42:07;7.22;;;1.35;;
51943;SDS011;37969;53.132;6.370;2022-11-02T03:44:36;11.05;;;1.67;;
51943;SDS011;37969;53.132;6.370;2022-11-02T03:47:02;8.60;;;1.30;;
51943;SDS011;37969;53.132;6.370;2022-11-02T03:49:30;10.23;;;1.83;;
51943;SDS011;37969;53.132;6.370;2022-11-02T03:51:58;8.95;;;1.90;;
51943;SDS011;37969;53.132;6.370;2022-11-02T03:54:28;9.85;;;1.60;;
51943;SDS011;37969;53.132;6.370;2022-11-02T03:56:58;12.90;;;2.53;;
51943;SDS011;37969;53.132;6.370;2022-11-02T03:59:30;17.83;;;3.08;;
51943;SDS011;37969;53.132;6.370;2022-11-02T04:01:57;6.97;;;2.28;;
51943;SDS011;37969;53.132;6.370;2022-11-02T04:04:23;11.50;;;2.30;;
51943;SDS011;37969;53.132;6.370;2022-11-02T04:06:49;12.38;;;2.28;;
51943;SDS011;37969;53.132;6.370;2022-11-02T04:09:16;9.40;;;1.90;;
51943;SDS011;37969;53.132;6.370;2022-11-02T04:11:42;11.25;;;1.75;;
51943;SDS011;37969;53.132;6.370;2022-11-02T04:14:27;15.63;;;2.00;;
51943;SDS011;37969;53.132;6.370;2022-11-02T04:17:02;13.13;;;1.88;;
51943;SDS011;37969;53.132;6.370;2022-11-02T04:19:47;13.55;;;2.58;;
51943;SDS011;37969;53.132;6.370;2022-11-02T04:22:14;13.88;;;2.10;;
51943;SDS011;37969;53.132;6.370;2022-11-02T04:24:59;13.35;;;2.13;;
51943;SDS011;37969;53.132;6.370;2022-11-02T04:27:40;13.75;;;2.22;;
51943;SDS011;37969;53.132;6.370;2022-11-02T04:30:07;6.70;;;1.83;;
51943;SDS011;37969;53.132;6.370;2022-11-02T04:32:37;13.80;;;2.13;;
51943;SDS011;37969;53.132;6.370;2022-11-02T04:35:22;13.15;;;1.67;;
51943;SDS011;37969;53.132;6.370;2022-11-02T04:37:49;16.17;;;2.33;;
51943;SDS011;37969;53.132;6.370;2022-11-02T04:40:34;9.63;;;1.85;;
51943;SDS011;37969;53.132;6.370;2022-11-02T04:43:00;11.60;;;2.22;;
51943;SDS011;37969;53.132;6.370;2022-11-02T04:45:26;12.40;;;2.25;;
51943;SDS011;37969;53.132;6.370;2022-11-02T04:47:52;12.75;;;2.17;;
51943;SDS011;37969;53.132;6.370;2022-11-02T04:50:24;14.38;;;2.03;;
51943;SDS011;37969;53.132;6.370;2022-11-02T04:52:54;13.48;;;2.58;;
51943;SDS011;37969;53.132;6.370;2022-11-02T04:55:20;10.18;;;2.28;;
51943;SDS011;37969;53.132;6.370;2022-11-02T04:57:46;12.98;;;2.58;;
51943;SDS011;37969;53.132;6.370;2022-11-02T05:00:12;13.00;;;2.70;;
51943;SDS011;37969;53.132;6.370;2022-11-02T05:02:39;11.65;;;3.03;;
51943;SDS011;37969;53.132;6.370;2022-11-02T05:05:05;8.32;;;1.92;;
51943;SDS011;37969;53.132;6.370;2022-11-02T05:07:32;14.43;;;2.78;;
51943;SDS011;37969;53.132;6.370;2022-11-02T05:09:58;12.27;;;2.60;;
51943;SDS011;37969;53.132;6.370;2022-11-02T05:12:24;13.45;;;2.50;;
51943;SDS011;37969;53.132;6.370;2022-11-02T05:14:50;14.00;;;2.22;;
51943;SDS011;37969;53.132;6.370;2022-11-02T05:17:16;8.15;;;2.45;;
51943;SDS011;37969;53.132;6.370;2022-11-02T05:19:42;13.32;;;2.90;;
51943;SDS011;37969;53.132;6.370;2022-11-02T05:22:08;10.00;;;2.42;;
51943;SDS011;37969;53.132;6.370;2022-11-02T05:24:35;12.95;;;2.60;;
51943;SDS011;37969;53.132;6.370;2022-11-02T05:27:01;15.65;;;3.05;;
51943;SDS011;37969;53.132;6.370;2022-11-02T05:29:27;18.50;;;3.10;;
51943;SDS011;37969;53.132;6.370;2022-11-02T05:31:53;12.13;;;3.33;;
51943;SDS011;37969;53.132;6.370;2022-11-02T05:34:19;16.98;;;3.47;;
51943;SDS011;37969;53.132;6.370;2022-11-02T05:36:47;14.07;;;3.70;;
51943;SDS011;37969;53.132;6.370;2022-11-02T05:39:13;13.95;;;3.05;;
51943;SDS011;37969;53.132;6.370;2022-11-02T05:41:40;13.73;;;3.28;;
51943;SDS011;37969;53.132;6.370;2022-11-02T05:44:06;13.50;;;2.65;;
51943;SDS011;37969;53.132;6.370;2022-11-02T05:46:32;15.77;;;2.92;;
51943;SDS011;37969;53.132;6.370;2022-11-02T05:48:58;15.10;;;3.08;;
51943;SDS011;37969;53.132;6.370;2022-11-02T05:51:24;16.85;;;3.13;;
51943;SDS011;37969;53.132;6.370;2022-11-02T05:53:50;14.45;;;3.10;;
51943;SDS011;37969;53.132;6.370;2022-11-02T05:56:16;18.88;;;3.42;;
51943;SDS011;37969;53.132;6.370;2022-11-02T05:58:43;15.82;;;3.15;;
51943;SDS011;37969;53.132;6.370;2022-11-02T06:01:09;17.30;;;3.20;;
51943;SDS011;37969;53.132;6.370;2022-11-02T06:03:35;13.77;;;3.90;;
51943;SDS011;37969;53.132;6.370;2022-11-02T06:06:02;22.52;;;3.65;;
51943;SDS011;37969;53.132;6.370;2022-11-02T06:08:33;16.50;;;2.88;;
51943;SDS011;37969;53.132;6.370;2022-11-02T06:11:03;17.83;;;3.13;;
51943;SDS011;37969;53.132;6.370;2022-11-02T06:13:29;15.90;;;2.90;;
51943;SDS011;37969;53.132;6.370;2022-11-02T06:15:57;17.90;;;3.15;;
51943;SDS011;37969;53.132;6.370;2022-11-02T06:18:24;21.45;;;3.13;;
51943;SDS011;37969;53.132;6.370;2022-11-02T06:20:50;21.00;;;3.78;;
51943;SDS011;37969;53.132;6.370;2022-11-02T06:23:16;30.13;;;3.97;;
51943;SDS011;37969;53.132;6.370;2022-11-02T06:25:43;23.50;;;3.80;;
51943;SDS011;37969;53.132;6.370;2022-11-02T06:28:09;20.00;;;3.38;;
51943;SDS011;37969;53.132;6.370;2022-11-02T06:30:35;17.70;;;2.92;;
51943;SDS011;37969;53.132;6.370;2022-11-02T06:33:01;18.55;;;3.00;;
51943;SDS011;37969;53.132;6.370;2022-11-02T06:35:27;18.05;;;3.47;;
51943;SDS011;37969;53.132;6.370;2022-11-02T06:37:53;19.23;;;3.45;;
51943;SDS011;37969;53.132;6.370;2022-11-02T06:40:19;17.85;;;3.33;;
51943;SDS011;37969;53.132;6.370;2022-11-02T06:42:45;15.90;;;3.00;;
51943;SDS011;37969;53.132;6.370;2022-11-02T06:45:12;20.77;;;5.05;;
51943;SDS011;37969;53.132;6.370;2022-11-02T06:47:38;21.50;;;3.90;;
51943;SDS011;37969;53.132;6.370;2022-11-02T06:50:05;20.05;;;3.35;;
51943;SDS011;37969;53.132;6.370;2022-11-02T06:52:31;19.83;;;4.88;;
51943;SDS011;37969;53.132;6.370;2022-11-02T06:54:59;22.80;;;4.20;;
51943;SDS011;37969;53.132;6.370;2022-11-02T06:57:25;17.90;;;3.20;;
51943;SDS011;37969;53.132;6.370;2022-11-02T06:59:51;17.92;;;3.10;;
51943;SDS011;37969;53.132;6.370;2022-11-02T07:02:17;15.25;;;3.22;;
51943;SDS011;37969;53.132;6.370;2022-11-02T07:04:45;15.50;;;3.35;;
51943;SDS011;37969;53.132;6.370;2022-11-02T07:07:12;16.45;;;3.70;;
51943;SDS011;37969;53.132;6.370;2022-11-02T07:09:38;18.00;;;4.97;;
51943;SDS011;37969;53.132;6.370;2022-11-02T07:12:04;22.38;;;4.20;;
51943;SDS011;37969;53.132;6.370;2022-11-02T07:14:30;17.80;;;3.75;;
51943;SDS011;37969;53.132;6.370;2022-11-02T07:16:56;17.90;;;4.13;;
51943;SDS011;37969;53.132;6.370;2022-11-02T07:19:23;15.00;;;5.30;;
51943;SDS011;37969;53.132;6.370;2022-11-02T07:21:49;19.08;;;3.10;;
51943;SDS011;37969;53.132;6.370;2022-11-02T07:24:15;23.35;;;3.70;;
51943;SDS011;37969;53.132;6.370;2022-11-02T07:26:41;16.38;;;4.35;;
51943;SDS011;37969;53.132;6.370;2022-11-02T07:29:07;15.32;;;3.63;;
51943;SDS011;37969;53.132;6.370;2022-11-02T07:31:33;7.95;;;2.13;;
51943;SDS011;37969;53.132;6.370;2022-11-02T07:33:59;12.68;;;3.22;;
51943;SDS011;37969;53.132;6.370;2022-11-02T07:36:25;12.43;;;2.25;;
51943;SDS011;37969;53.132;6.370;2022-11-02T07:38:52;14.50;;;2.20;;
51943;SDS011;37969;53.132;6.370;2022-11-02T07:41:18;12.32;;;4.50;;
51943;SDS011;37969;53.132;6.370;2022-11-02T07:43:44;10.40;;;2.58;;
51943;SDS011;37969;53.132;6.370;2022-11-02T07:46:10;9.95;;;1.48;;
51943;SDS011;37969;53.132;6.370;2022-11-02T07:48:36;11.90;;;1.42;;
51943;SDS011;37969;53.132;6.370;2022-11-02T07:51:03;8.18;;;2.60;;
51943;SDS011;37969;53.132;6.370;2022-11-02T07:53:29;7.40;;;1.85;;
51943;SDS011;37969;53.132;6.370;2022-11-02T07:55:56;7.35;;;1.73;;
51943;SDS011;37969;53.132;6.370;2022-11-02T07:58:22;11.00;;;3.78;;
51943;SDS011;37969;53.132;6.370;2022-11-02T08:00:48;9.45;;;3.75;;
51943;SDS011;37969;53.132;6.370;2022-11-02T08:03:14;15.00;;;5.60;;
51943;SDS011;37969;53.132;6.370;2022-11-02T08:05:41;10.52;;;3.55;;
51943;SDS011;37969;53.132;6.370;2022-11-02T08:08:09;18.33;;;7.60;;
51943;SDS011;37969;53.132;6.370;2022-11-02T08:10:36;13.43;;;3.65;;
51943;SDS011;37969;53.132;6.370;2022-11-02T08:13:03;10.00;;;3.72;;
51943;SDS011;37969;53.132;6.370;2022-11-02T08:15:29;12.07;;;4.35;;
51943;SDS011;37969;53.132;6.370;2022-11-02T08:18:00;6.88;;;1.50;;
51943;SDS011;37969;53.132;6.370;2022-11-02T08:20:27;13.55;;;4.10;;
51943;SDS011;37969;53.132;6.370;2022-11-02T08:22:53;12.55;;;3.47;;
51943;SDS011;37969;53.132;6.370;2022-11-02T08:25:19;15.60;;;4.85;;
51943;SDS011;37969;53.132;6.370;2022-11-02T08:27:45;14.48;;;3.53;;
51943;SDS011;37969;53.132;6.370;2022-11-02T08:30:11;15.50;;;3.42;;
51943;SDS011;37969;53.132;6.370;2022-11-02T08:32:38;25.38;;;11.30;;
51943;SDS011;37969;53.132;6.370;2022-11-02T08:35:04;17.90;;;3.85;;
51943;SDS011;37969;53.132;6.370;2022-11-02T08:37:30;12.52;;;4.68;;
51943;SDS011;37969;53.132;6.370;2022-11-02T08:39:56;13.00;;;2.10;;
51943;SDS011;37969;53.132;6.370;2022-11-02T08:42:23;12.07;;;4.50;;
51943;SDS011;37969;53.132;6.370;2022-11-02T08:44:49;19.00;;;6.00;;
51943;SDS011;37969;53.132;6.370;2022-11-02T08:47:15;14.45;;;3.65;;
51943;SDS011;37969;53.132;6.370;2022-11-02T08:49:43;11.48;;;3.85;;
51943;SDS011;37969;53.132;6.370;2022-11-02T08:52:11;15.30;;;2.50;;
51943;SDS011;37969;53.132;6.370;2022-11-02T08:54:37;8.88;;;2.30;;
51943;SDS011;37969;53.132;6.370;2022-11-02T08:57:03;14.50;;;3.22;;
51943;SDS011;37969;53.132;6.370;2022-11-02T08:59:29;12.45;;;3.17;;
51943;SDS011;37969;53.132;6.370;2022-11-02T09:01:55;12.80;;;2.78;;
51943;SDS011;37969;53.132;6.370;2022-11-02T09:04:21;14.63;;;2.45;;
51943;SDS011;37969;53.132;6.370;2022-11-02T09:06:48;13.48;;;2.38;;
51943;SDS011;37969;53.132;6.370;2022-11-02T09:09:14;18.33;;;3.45;;
51943;SDS011;37969;53.132;6.370;2022-11-02T09:11:40;11.93;;;2.38;;
51943;SDS011;37969;53.132;6.370;2022-11-02T09:14:06;10.57;;;3.13;;
51943;SDS011;37969;53.132;6.370;2022-11-02T09:16:32;11.13;;;2.78;;
51943;SDS011;37969;53.132;6.370;2022-11-02T09:18:59;16.45;;;2.67;;
51943;SDS011;37969;53.132;6.370;2022-11-02T09:21:25;15.00;;;3.38;;
51943;SDS011;37969;53.132;6.370;2022-11-02T09:23:51;11.40;;;2.70;;
51943;SDS011;37969;53.132;6.370;2022-11-02T09:26:18;14.43;;;3.75;;
51943;SDS011;37969;53.132;6.370;2022-11-02T09:28:44;15.35;;;3.47;;
51943;SDS011;37969;53.132;6.370;2022-11-02T09:31:10;15.82;;;4.55;;
51943;SDS011;37969;53.132;6.370;2022-11-02T09:33:36;19.55;;;5.15;;
51943;SDS011;37969;53.132;6.370;2022-11-02T09:36:03;15.07;;;4.32;;
51943;SDS011;37969;53.132;6.370;2022-11-02T09:38:29;21.17;;;6.72;;
51943;SDS011;37969;53.132;6.370;2022-11-02T09:43:28;14.18;;;3.60;;
51943;SDS011;37969;53.132;6.370;2022-11-02T09:46:03;16.92;;;5.15;;
51943;SDS011;37969;53.132;6.370;2022-11-02T09:48:35;16.42;;;4.15;;
51943;SDS011;37969;53.132;6.370;2022-11-02T09:51:07;15.80;;;2.47;;
51943;SDS011;37969;53.132;6.370;2022-11-02T09:53:37;11.98;;;2.60;;
51943;SDS011;37969;53.132;6.370;2022-11-02T09:56:06;16.38;;;2.85;;
51943;SDS011;37969;53.132;6.370;2022-11-02T09:58:33;14.10;;;2.92;;
51943;SDS011;37969;53.132;6.370;2022-11-02T10:01:04;15.38;;;5.28;;
51943;SDS011;37969;53.132;6.370;2022-11-02T10:03:42;19.65;;;6.00;;
51943;SDS011;37969;53.132;6.370;2022-11-02T10:06:13;19.40;;;7.70;;
51943;SDS011;37969;53.132;6.370;2022-11-02T10:08:47;19.88;;;6.15;;
51943;SDS011;37969;53.132;6.370;2022-11-02T10:14:07;17.77;;;6.22;;
51943;SDS011;37969;53.132;6.370;2022-11-02T10:16:36;16.60;;;4.13;;
51943;SDS011;37969;53.132;6.370;2022-11-02T10:19:04;15.02;;;4.22;;
51943;SDS011;37969;53.132;6.370;2022-11-02T10:21:34;17.08;;;2.78;;
51943;SDS011;37969;53.132;6.370;2022-11-02T10:24:05;18.17;;;2.58;;
51943;SDS011;37969;53.132;6.370;2022-11-02T10:26:35;15.30;;;2.70;;
51943;SDS011;37969;53.132;6.370;2022-11-02T10:29:15;12.57;;;2.72;;
51943;SDS011;37969;53.132;6.370;2022-11-02T10:31:42;11.90;;;2.30;;
51943;SDS011;37969;53.132;6.370;2022-11-02T10:34:21;10.75;;;2.75;;
51943;SDS011;37969;53.132;6.370;2022-11-02T10:36:51;12.02;;;3.20;;
51943;SDS011;37969;53.132;6.370;2022-11-02T10:39:34;12.15;;;2.45;;
51943;SDS011;37969;53.132;6.370;2022-11-02T10:42:08;12.82;;;2.50;;
51943;SDS011;37969;53.132;6.370;2022-11-02T10:44:43;10.27;;;2.38;;
51943;SDS011;37969;53.132;6.370;2022-11-02T10:47:16;15.02;;;2.40;;
51943;SDS011;37969;53.132;6.370;2022-11-02T10:49:55;11.32;;;2.05;;
51943;SDS011;37969;53.132;6.370;2022-11-02T10:52:24;10.18;;;2.00;;
51943;SDS011;37969;53.132;6.370;2022-11-02T10:54:55;14.85;;;2.75;;
51943;SDS011;37969;53.132;6.370;2022-11-02T10:57:22;15.30;;;2.17;;
51943;SDS011;37969;53.132;6.370;2022-11-02T11:02:34;20.10;;;3.00;;
51943;SDS011;37969;53.132;6.370;2022-11-02T11:05:11;13.32;;;2.65;;
51943;SDS011;37969;53.132;6.370;2022-11-02T11:07:41;14.65;;;2.45;;
51943;SDS011;37969;53.132;6.370;2022-11-02T11:10:13;13.82;;;2.60;;
51943;SDS011;37969;53.132;6.370;2022-11-02T11:12:40;13.95;;;2.05;;
51943;SDS011;37969;53.132;6.370;2022-11-02T11:15:14;17.65;;;2.65;;
51943;SDS011;37969;53.132;6.370;2022-11-02T11:17:45;11.95;;;2.00;;
51943;SDS011;37969;53.132;6.370;2022-11-02T11:20:33;15.80;;;2.67;;
51943;SDS011;37969;53.132;6.370;2022-11-02T11:25:34;13.27;;;2.88;;
51943;SDS011;37969;53.132;6.370;2022-11-02T11:28:01;9.68;;;1.70;;
51943;SDS011;37969;53.132;6.370;2022-11-02T11:32:53;12.82;;;2.00;;
51943;SDS011;37969;53.132;6.370;2022-11-02T11:35:20;13.15;;;2.15;;
51943;SDS011;37969;53.132;6.370;2022-11-02T11:37:52;10.77;;;1.92;;
51943;SDS011;37969;53.132;6.370;2022-11-02T11:40:19;10.68;;;1.95;;
51943;SDS011;37969;53.132;6.370;2022-11-02T11:42:48;15.13;;;2.15;;
51943;SDS011;37969;53.132;6.370;2022-11-02T11:45:19;7.22;;;1.77;;
51943;SDS011;37969;53.132;6.370;2022-11-02T11:47:46;13.13;;;2.35;;
51943;SDS011;37969;53.132;6.370;2022-11-02T11:50:16;12.55;;;2.30;;
51943;SDS011;37969;53.132;6.370;2022-11-02T11:52:42;7.38;;;1.67;;
51943;SDS011;37969;53.132;6.370;2022-11-02T11:55:25;13.43;;;1.77;;
51943;SDS011;37969;53.132;6.370;2022-11-02T11:58:15;9.32;;;2.00;;
51943;SDS011;37969;53.132;6.370;2022-11-02T12:00:39;9.20;;;1.95;;
51943;SDS011;37969;53.132;6.370;2022-11-02T12:03:06;12.65;;;1.85;;
51943;SDS011;37969;53.132;6.370;2022-11-02T12:05:45;16.67;;;1.85;;
51943;SDS011;37969;53.132;6.370;2022-11-02T12:08:17;12.60;;;2.50;;
51943;SDS011;37969;53.132;6.370;2022-11-02T12:10:59;8.68;;;2.17;;
51943;SDS011;37969;53.132;6.370;2022-11-02T12:18:57;9.25;;;2.55;;
51943;SDS011;37969;53.132;6.370;2022-11-02T12:23:58;15.60;;;2.67;;
51943;SDS011;37969;53.132;6.370;2022-11-02T12:26:33;8.48;;;2.08;;
51943;SDS011;37969;53.132;6.370;2022-11-02T12:29:26;11.98;;;2.13;;
51943;SDS011;37969;53.132;6.370;2022-11-02T12:32:03;12.68;;;2.20;;
51943;SDS011;37969;53.132;6.370;2022-11-02T12:34:36;15.55;;;2.50;;
51943;SDS011;37969;53.132;6.370;2022-11-02T12:37:12;13.25;;;2.03;;
51943;SDS011;37969;53.132;6.370;2022-11-02T12:42:21;15.68;;;2.42;;
51943;SDS011;37969;53.132;6.370;2022-11-02T12:44:54;15.57;;;1.97;;
51943;SDS011;37969;53.132;6.370;2022-11-02T12:52:36;12.05;;;2.40;;
51943;SDS011;37969;53.132;6.370;2022-11-02T12:55:11;13.13;;;2.40;;
51943;SDS011;37969;53.132;6.370;2022-11-02T12:57:38;12.85;;;2.38;;
51943;SDS011;37969;53.132;6.370;2022-11-02T13:00:06;12.73;;;2.00;;
51943;SDS011;37969;53.132;6.370;2022-11-02T13:02:40;14.40;;;2.25;;
51943;SDS011;37969;53.132;6.370;2022-11-02T13:05:11;11.45;;;2.10;;
51943;SDS011;37969;53.132;6.370;2022-11-02T13:07:41;18.63;;;2.78;;
51943;SDS011;37969;53.132;6.370;2022-11-02T13:10:18;8.05;;;1.70;;
51943;SDS011;37969;53.132;6.370;2022-11-02T13:12:46;13.85;;;2.00;;
51943;SDS011;37969;53.132;6.370;2022-11-02T13:15:14;13.25;;;2.00;;
51943;SDS011;37969;53.132;6.370;2022-11-02T13:17:43;13.52;;;2.22;;
51943;SDS011;37969;53.132;6.370;2022-11-02T13:22:39;12.07;;;2.22;;
51943;SDS011;37969;53.132;6.370;2022-11-02T13:25:16;11.25;;;1.80;;
51943;SDS011;37969;53.132;6.370;2022-11-02T13:27:48;14.20;;;2.78;;
51943;SDS011;37969;53.132;6.370;2022-11-02T13:30:16;10.95;;;2.15;;
51943;SDS011;37969;53.132;6.370;2022-11-02T13:32:44;9.23;;;1.95;;
51943;SDS011;37969;53.132;6.370;2022-11-02T13:35:15;9.60;;;2.27;;
51943;SDS011;37969;53.132;6.370;2022-11-02T13:37:43;13.20;;;2.22;;
51943;SDS011;37969;53.132;6.370;2022-11-02T13:40:13;15.38;;;2.13;;
51943;SDS011;37969;53.132;6.370;2022-11-02T13:42:44;12.93;;;2.72;;
51943;SDS011;37969;53.132;6.370;2022-11-02T13:47:45;15.13;;;2.50;;
51943;SDS011;37969;53.132;6.370;2022-11-02T13:50:14;12.38;;;2.67;;
51943;SDS011;37969;53.132;6.370;2022-11-02T13:52:44;10.45;;;1.77;;
51943;SDS011;37969;53.132;6.370;2022-11-02T13:55:17;11.55;;;2.22;;
51943;SDS011;37969;53.132;6.370;2022-11-02T13:57:46;8.23;;;2.08;;
51943;SDS011;37969;53.132;6.370;2022-11-02T14:02:40;11.13;;;1.98;;
51943;SDS011;37969;53.132;6.370;2022-11-02T14:05:07;6.85;;;2.03;;
51943;SDS011;37969;53.132;6.370;2022-11-02T14:07:34;9.18;;;2.25;;
51943;SDS011;37969;53.132;6.370;2022-11-02T14:10:05;14.95;;;2.50;;
51943;SDS011;37969;53.132;6.370;2022-11-02T14:12:38;13.55;;;2.50;;
51943;SDS011;37969;53.132;6.370;2022-11-02T14:20:35;15.40;;;2.78;;
51943;SDS011;37969;53.132;6.370;2022-11-02T14:30:55;14.65;;;2.70;;
51943;SDS011;37969;53.132;6.370;2022-11-02T14:35:55;24.63;;;3.20;;
51943;SDS011;37969;53.132;6.370;2022-11-02T14:38:27;14.88;;;2.65;;
51943;SDS011;37969;53.132;6.370;2022-11-02T14:46:15;12.45;;;2.20;;
51943;SDS011;37969;53.132;6.370;2022-11-02T14:48:48;11.88;;;2.20;;
51943;SDS011;37969;53.132;6.370;2022-11-02T14:51:21;12.53;;;2.30;;
51943;SDS011;37969;53.132;6.370;2022-11-02T14:53:53;18.50;;;2.95;;
51943;SDS011;37969;53.132;6.370;2022-11-02T14:56:20;17.83;;;2.30;;
51943;SDS011;37969;53.132;6.370;2022-11-02T14:58:49;21.27;;;2.50;;
51943;SDS011;37969;53.132;6.370;2022-11-02T15:01:17;19.45;;;2.17;;
51943;SDS011;37969;53.132;6.370;2022-11-02T15:03:43;14.57;;;2.30;;
51943;SDS011;37969;53.132;6.370;2022-11-02T15:06:20;11.80;;;1.95;;
51943;SDS011;37969;53.132;6.370;2022-11-02T15:08:52;14.20;;;2.00;;
51943;SDS011;37969;53.132;6.370;2022-11-02T15:14:29;11.57;;;2.22;;
51943;SDS011;37969;53.132;6.370;2022-11-02T15:16:50;10.98;;;2.60;;
51943;SDS011;37969;53.132;6.370;2022-11-02T15:24:48;15.95;;;2.78;;
51943;SDS011;37969;53.132;6.370;2022-11-02T15:27:14;13.75;;;2.75;;
51943;SDS011;37969;53.132;6.370;2022-11-02T15:29:42;10.35;;;2.25;;
51943;SDS011;37969;53.132;6.370;2022-11-02T15:32:13;13.98;;;2.40;;
51943;SDS011;37969;53.132;6.370;2022-11-02T15:34:42;13.38;;;2.42;;
51943;SDS011;37969;53.132;6.370;2022-11-02T15:37:13;17.73;;;2.70;;
51943;SDS011;37969;53.132;6.370;2022-11-02T15:39:46;14.07;;;2.40;;
51943;SDS011;37969;53.132;6.370;2022-11-02T15:42:14;15.00;;;2.97;;
51943;SDS011;37969;53.132;6.370;2022-11-02T15:44:58;13.57;;;3.83;;
51943;SDS011;37969;53.132;6.370;2022-11-02T15:47:34;16.15;;;3.78;;
51943;SDS011;37969;53.132;6.370;2022-11-02T15:57:39;17.35;;;3.47;;
51943;SDS011;37969;53.132;6.370;2022-11-02T16:00:10;16.10;;;3.63;;
51943;SDS011;37969;53.132;6.370;2022-11-02T16:02:40;14.80;;;3.03;;
51943;SDS011;37969;53.132;6.370;2022-11-02T16:05:13;17.23;;;3.87;;
51943;SDS011;37969;53.132;6.370;2022-11-02T16:07:40;15.25;;;3.67;;
51943;SDS011;37969;53.132;6.370;2022-11-02T16:10:09;13.75;;;2.50;;
51943;SDS011;37969;53.132;6.370;2022-11-02T16:12:35;16.38;;;3.08;;
51943;SDS011;37969;53.132;6.370;2022-11-02T16:15:09;15.02;;;3.10;;
51943;SDS011;37969;53.132;6.370;2022-11-02T16:17:36;19.13;;;3.20;;
51943;SDS011;37969;53.132;6.370;2022-11-02T16:20:19;14.25;;;2.95;;
51943;SDS011;37969;53.132;6.370;2022-11-02T16:22:46;15.55;;;3.38;;